SBOSBO EZE / SAEZ
Speedbird OnlineSpeedbird Online EZE / SAEZ

Ministro Pistarini International Airport
22:02 29.4°C

Location Buenos Aires, Argentina
Latitude: -34.8222
Longitude: -58.5358
Web Airport Website | Wikipedia
Altitude 20 Meter / 67 Feet
Distance 11,169 KM / 6,940 Miles
from London.
Time Zone UTC -3 hours (America/Buenos_Aires)
Codes IATA: EZE
ICAO: SAEZ
Currency £1 equals ARS 229.11
Runways
RunwayLength (m)Surface
113300Asphalt
173105Asphalt
293300Asphalt
353105Asphalt
Radio
TypeDescriptionFrequency
A/DBAIRES CON124.9
APPEZEIZA APP119.9
ATISATIS127.8
GCCDGND/CLNC DEL121.75
TWREZEIZA TWR118.6
Live ATC
METAR SAEZ 270000Z 09004KT CAVOK 30/18 Q1007 NOSIG RMK PP000
TAF TAF SAEZ 262300Z 2700/2724 09005KT CAVOK TX29/2718Z TN23/2708Z BECMG 2708/2710 25010G25KT 9999 SCT040 BECMG 2710/2712 7000 -TSRA FEW045CB TEMPO 2710/2715 12010KT 3000 TSRA BKN020 FEW040CB BECMG 2714/2716 9999 NSW SCT020 BECMG 2718/2720 15005 7000 -SHRA BKN020 FEW045TCU
Weather As Of 26 Jan 2023 21:57
Description Clear sky
Wind 7 km/h from East (90°)
Cloud Cover 0%
Precipitation Rain: none, Snow: none
Sunrise 06:07
Sunset 20:05
Lounges American Airlines Admirals Club and; Iberia VIP Lounge, Terminal B
LATAM VIP Lounge TEMPORARILY CLOSED, Terminal B
Rotations During the last 90 days there were
51 flights from GRU
22 flights from LHR
51 flights to GRU
24 flights to LHR



Support Speedbird Online

© 2017-2023 Speedbird Online